sensor_id;sensor_type;location;lat;lon;timestamp;pressure;altitude;pressure_sealevel;temperature;humidity
48796;BME280;34607;48.520;-1.330;2023-06-10T07:01:23;99692.28;;;20.74;100.00
48796;BME280;34607;48.520;-1.330;2023-06-10T07:03:50;99708.34;;;20.90;100.00
48796;BME280;34607;48.520;-1.330;2023-06-10T07:06:17;99712.50;;;20.98;100.00
48796;BME280;34607;48.520;-1.330;2023-06-10T07:08:44;99711.47;;;21.02;100.00
48796;BME280;34607;48.520;-1.330;2023-06-10T07:11:11;99692.25;;;21.00;100.00
48796;BME280;34607;48.520;-1.330;2023-06-10T07:13:38;99706.78;;;21.10;100.00
48796;BME280;34607;48.520;-1.330;2023-06-10T07:16:05;99708.53;;;21.09;100.00
48796;BME280;34607;48.520;-1.330;2023-06-10T07:18:34;99696.50;;;21.02;100.00
48796;BME280;34607;48.520;-1.330;2023-06-10T07:21:01;99717.38;;;21.08;100.00
48796;BME280;34607;48.520;-1.330;2023-06-10T07:23:28;99731.22;;;21.13;100.00
48796;BME280;34607;48.520;-1.330;2023-06-10T07:25:55;99728.69;;;21.10;100.00
48796;BME280;34607;48.520;-1.330;2023-06-10T07:28:22;99709.56;;;21.05;100.00
48796;BME280;34607;48.520;-1.330;2023-06-10T07:30:49;99734.28;;;21.25;100.00
48796;BME280;34607;48.520;-1.330;2023-06-10T07:33:16;99736.00;;;21.26;100.00
48796;BME280;34607;48.520;-1.330;2023-06-10T07:35:44;99738.53;;;21.29;100.00
48796;BME280;34607;48.520;-1.330;2023-06-10T07:38:11;99731.22;;;21.13;100.00
48796;BME280;34607;48.520;-1.330;2023-06-10T07:40:38;99739.63;;;21.23;100.00
48796;BME280;34607;48.520;-1.330;2023-06-10T07:43:05;99743.34;;;21.18;100.00
48796;BME280;34607;48.520;-1.330;2023-06-10T07:45:32;99734.84;;;21.09;100.00
48796;BME280;34607;48.520;-1.330;2023-06-10T07:47:59;99748.03;;;21.09;100.00
48796;BME280;34607;48.520;-1.330;2023-06-10T07:50:26;99756.81;;;21.10;100.00
48796;BME280;34607;48.520;-1.330;2023-06-10T07:52:55;99752.38;;;21.10;100.00
48796;BME280;34607;48.520;-1.330;2023-06-10T07:55:22;99763.53;;;21.17;100.00
48796;BME280;34607;48.520;-1.330;2023-06-10T07:57:51;99753.38;;;21.08;100.00
48796;BME280;34607;48.520;-1.330;2023-06-10T08:00:19;99763.38;;;20.98;100.00
48796;BME280;34607;48.520;-1.330;2023-06-10T08:02:46;99759.19;;;20.92;100.00
48796;BME280;34607;48.520;-1.330;2023-06-10T08:05:13;99759.41;;;20.86;100.00
48796;BME280;34607;48.520;-1.330;2023-06-10T08:07:40;99768.88;;;20.90;100.00
48796;BME280;34607;48.520;-1.330;2023-06-10T08:10:11;99766.94;;;20.95;100.00
48796;BME280;34607;48.520;-1.330;2023-06-10T08:12:38;99773.00;;;20.99;100.00
48796;BME280;34607;48.520;-1.330;2023-06-10T08:15:06;99774.00;;;20.95;100.00
48796;BME280;34607;48.520;-1.330;2023-06-10T08:17:33;99776.97;;;21.09;100.00
48796;BME280;34607;48.520;-1.330;2023-06-10T08:20:00;99779.50;;;21.12;100.00
48796;BME280;34607;48.520;-1.330;2023-06-10T08:22:27;99774.94;;;21.18;100.00
48796;BME280;34607;48.520;-1.330;2023-06-10T08:24:55;99760.19;;;21.13;100.00
48796;BME280;34607;48.520;-1.330;2023-06-10T08:27:24;99771.16;;;21.25;100.00
48796;BME280;34607;48.520;-1.330;2023-06-10T08:29:51;99774.94;;;21.18;100.00
48796;BME280;34607;48.520;-1.330;2023-06-10T08:32:18;99773.09;;;21.20;100.00
48796;BME280;34607;48.520;-1.330;2023-06-10T08:34:45;99779.75;;;21.30;100.00
48796;BME280;34607;48.520;-1.330;2023-06-10T08:37:12;99767.09;;;21.16;100.00
48796;BME280;34607;48.520;-1.330;2023-06-10T08:39:39;99784.06;;;21.07;100.00
48796;BME280;34607;48.520;-1.330;2023-06-10T08:42:11;99770.97;;;21.06;100.00
48796;BME280;34607;48.520;-1.330;2023-06-10T08:44:46;99782.94;;;21.14;100.00
48796;BME280;34607;48.520;-1.330;2023-06-10T08:47:14;99762.19;;;20.82;100.00
48796;BME280;34607;48.520;-1.330;2023-06-10T08:49:44;99786.25;;;20.96;100.00
48796;BME280;34607;48.520;-1.330;2023-06-10T08:52:14;99791.47;;;20.98;100.00
48796;BME280;34607;48.520;-1.330;2023-06-10T08:54:47;99793.13;;;21.00;100.00
48796;BME280;34607;48.520;-1.330;2023-06-10T08:57:15;99795.50;;;20.83;100.00
48796;BME280;34607;48.520;-1.330;2023-06-10T08:59:47;99798.78;;;20.89;100.00
48796;BME280;34607;48.520;-1.330;2023-06-10T09:02:15;99800.31;;;20.95;100.00
48796;BME280;34607;48.520;-1.330;2023-06-10T09:04:46;99800.84;;;21.05;100.00
48796;BME280;34607;48.520;-1.330;2023-06-10T09:07:13;99808.47;;;21.12;100.00
48796;BME280;34607;48.520;-1.330;2023-06-10T09:09:42;99807.66;;;21.10;100.00
48796;BME280;34607;48.520;-1.330;2023-06-10T09:12:10;99794.91;;;21.00;100.00
48796;BME280;34607;48.520;-1.330;2023-06-10T09:14:37;99811.84;;;21.16;100.00
48796;BME280;34607;48.520;-1.330;2023-06-10T09:17:06;99812.84;;;21.13;100.00
48796;BME280;34607;48.520;-1.330;2023-06-10T09:19:35;99809.50;;;21.08;100.00
48796;BME280;34607;48.520;-1.330;2023-06-10T09:22:02;99818.09;;;21.13;100.00
48796;BME280;34607;48.520;-1.330;2023-06-10T09:24:30;99767.44;;;20.82;100.00
48796;BME280;34607;48.520;-1.330;2023-06-10T09:27:05;99817.28;;;21.11;100.00
48796;BME280;34607;48.520;-1.330;2023-06-10T09:29:45;99825.06;;;21.14;100.00
48796;BME280;34607;48.520;-1.330;2023-06-10T09:32:14;99820.19;;;21.04;100.00
48796;BME280;34607;48.520;-1.330;2023-06-10T09:34:43;99829.06;;;21.01;100.00
48796;BME280;34607;48.520;-1.330;2023-06-10T09:37:11;99822.16;;;20.97;100.00
48796;BME280;34607;48.520;-1.330;2023-06-10T09:39:40;99832.50;;;21.03;100.00
48796;BME280;34607;48.520;-1.330;2023-06-10T09:42:17;99823.25;;;20.91;100.00
48796;BME280;34607;48.520;-1.330;2023-06-10T09:44:49;99830.91;;;20.99;100.00
48796;BME280;34607;48.520;-1.330;2023-06-10T09:47:21;99817.16;;;20.91;100.00
48796;BME280;34607;48.520;-1.330;2023-06-10T09:49:49;99817.03;;;20.94;100.00
48796;BME280;34607;48.520;-1.330;2023-06-10T09:52:21;99835.72;;;21.11;100.00
48796;BME280;34607;48.520;-1.330;2023-06-10T09:54:48;99834.69;;;21.16;100.00
48796;BME280;34607;48.520;-1.330;2023-06-10T09:57:16;99831.31;;;21.12;100.00
48796;BME280;34607;48.520;-1.330;2023-06-10T09:59:44;99818.19;;;21.10;100.00
48796;BME280;34607;48.520;-1.330;2023-06-10T10:02:15;99832.06;;;21.16;100.00
48796;BME280;34607;48.520;-1.330;2023-06-10T10:04:44;99844.97;;;21.23;100.00
48796;BME280;34607;48.520;-1.330;2023-06-10T10:07:11;99843.28;;;21.21;100.00
48796;BME280;34607;48.520;-1.330;2023-06-10T10:09:39;99838.38;;;21.11;100.00
48796;BME280;34607;48.520;-1.330;2023-06-10T10:12:09;99841.75;;;21.15;100.00
48796;BME280;34607;48.520;-1.330;2023-06-10T10:14:37;99843.72;;;21.08;100.00
48796;BME280;34607;48.520;-1.330;2023-06-10T10:17:07;99852.09;;;21.20;100.00
48796;BME280;34607;48.520;-1.330;2023-06-10T10:19:40;99833.03;;;21.13;100.00
48796;BME280;34607;48.520;-1.330;2023-06-10T10:22:17;99855.56;;;21.22;100.00
48796;BME280;34607;48.520;-1.330;2023-06-10T10:24:49;99849.34;;;21.23;100.00
48796;BME280;34607;48.520;-1.330;2023-06-10T10:27:18;99854.63;;;21.23;100.00
48796;BME280;34607;48.520;-1.330;2023-06-10T10:29:48;99852.16;;;21.18;100.00
48796;BME280;34607;48.520;-1.330;2023-06-10T10:32:22;99841.91;;;21.10;100.00
48796;BME280;34607;48.520;-1.330;2023-06-10T10:34:56;99843.81;;;21.05;100.00
48796;BME280;34607;48.520;-1.330;2023-06-10T10:37:31;99855.28;;;21.04;100.00
48796;BME280;34607;48.520;-1.330;2023-06-10T10:39:59;99854.59;;;20.99;100.00
48796;BME280;34607;48.520;-1.330;2023-06-10T10:42:27;99848.72;;;20.91;100.00
48796;BME280;34607;48.520;-1.330;2023-06-10T10:44:55;99853.88;;;20.94;100.00
48796;BME280;34607;48.520;-1.330;2023-06-10T10:47:26;99847.50;;;21.01;100.00
48796;BME280;34607;48.520;-1.330;2023-06-10T10:49:55;99832.97;;;20.89;100.00
48796;BME280;34607;48.520;-1.330;2023-06-10T10:52:25;99841.63;;;20.93;100.00
48796;BME280;34607;48.520;-1.330;2023-06-10T10:54:54;99852.72;;;21.03;100.00
48796;BME280;34607;48.520;-1.330;2023-06-10T10:57:22;99833.84;;;20.90;100.00
48796;BME280;34607;48.520;-1.330;2023-06-10T10:59:55;99861.00;;;20.90;100.00
48796;BME280;34607;48.520;-1.330;2023-06-10T11:02:41;99852.31;;;20.88;100.00
48796;BME280;34607;48.520;-1.330;2023-06-10T11:05:10;99855.59;;;20.95;100.00
48796;BME280;34607;48.520;-1.330;2023-06-10T11:07:38;99852.84;;;20.98;100.00
48796;BME280;34607;48.520;-1.330;2023-06-10T11:10:11;99855.34;;;21.03;100.00
48796;BME280;34607;48.520;-1.330;2023-06-10T11:12:49;99836.09;;;21.01;100.00
48796;BME280;34607;48.520;-1.330;2023-06-10T11:15:18;99862.38;;;21.27;100.00
48796;BME280;34607;48.520;-1.330;2023-06-10T11:18:08;99853.63;;;21.27;100.00
48796;BME280;34607;48.520;-1.330;2023-06-10T11:20:45;99863.91;;;21.33;100.00
48796;BME280;34607;48.520;-1.330;2023-06-10T11:23:34;99838.75;;;21.24;100.00
48796;BME280;34607;48.520;-1.330;2023-06-10T11:26:33;99847.25;;;21.32;100.00
48796;BME280;34607;48.520;-1.330;2023-06-10T11:29:07;99857.59;;;21.39;100.00
48796;BME280;34607;48.520;-1.330;2023-06-10T11:31:43;99864.50;;;21.41;100.00
48796;BME280;34607;48.520;-1.330;2023-06-10T11:34:10;99868.88;;;21.42;100.00
48796;BME280;34607;48.520;-1.330;2023-06-10T11:36:39;99882.09;;;21.41;100.00
48796;BME280;34607;48.520;-1.330;2023-06-10T11:39:08;99861.50;;;21.27;100.00
48796;BME280;34607;48.520;-1.330;2023-06-10T11:41:38;99875.72;;;21.21;100.00
48796;BME280;34607;48.520;-1.330;2023-06-10T11:44:08;99869.81;;;21.14;100.00
48796;BME280;34607;48.520;-1.330;2023-06-10T11:46:35;99876.34;;;21.04;100.00
48796;BME280;34607;48.520;-1.330;2023-06-10T11:49:03;99869.56;;;20.97;100.00
48796;BME280;34607;48.520;-1.330;2023-06-10T11:51:33;99867.81;;;20.98;100.00
48796;BME280;34607;48.520;-1.330;2023-06-10T11:54:01;99886.66;;;21.10;100.00
48796;BME280;34607;48.520;-1.330;2023-06-10T11:56:29;99884.25;;;21.04;100.00
48796;BME280;34607;48.520;-1.330;2023-06-10T11:58:59;99873.25;;;20.91;100.00
48796;BME280;34607;48.520;-1.330;2023-06-10T12:01:30;99879.28;;;20.95;100.00
48796;BME280;34607;48.520;-1.330;2023-06-10T12:04:02;99889.38;;;21.07;100.00
48796;BME280;34607;48.520;-1.330;2023-06-10T12:06:42;99883.03;;;21.38;100.00
48796;BME280;34607;48.520;-1.330;2023-06-10T12:09:14;99848.00;;;21.36;100.00
48796;BME280;34607;48.520;-1.330;2023-06-10T12:11:42;99885.75;;;21.85;100.00
48796;BME280;34607;48.520;-1.330;2023-06-10T12:14:11;99891.13;;;22.06;100.00
48796;BME280;34607;48.520;-1.330;2023-06-10T12:16:38;99889.63;;;21.99;100.00
48796;BME280;34607;48.520;-1.330;2023-06-10T12:19:05;99874.50;;;21.80;100.00
48796;BME280;34607;48.520;-1.330;2023-06-10T12:21:36;99882.47;;;21.79;100.00
48796;BME280;34607;48.520;-1.330;2023-06-10T12:24:06;99882.41;;;21.57;100.00
48796;BME280;34607;48.520;-1.330;2023-06-10T12:26:39;99878.28;;;21.49;100.00
48796;BME280;34607;48.520;-1.330;2023-06-10T12:29:21;99882.03;;;21.42;100.00
48796;BME280;34607;48.520;-1.330;2023-06-10T12:32:00;99883.44;;;21.53;100.00
48796;BME280;34607;48.520;-1.330;2023-06-10T12:34:35;99890.69;;;21.46;100.00
48796;BME280;34607;48.520;-1.330;2023-06-10T12:37:04;99886.06;;;21.27;100.00
48796;BME280;34607;48.520;-1.330;2023-06-10T12:39:32;99894.81;;;21.28;100.00
48796;BME280;34607;48.520;-1.330;2023-06-10T12:42:00;99877.31;;;21.27;100.00
48796;BME280;34607;48.520;-1.330;2023-06-10T12:44:33;99884.03;;;21.36;100.00
48796;BME280;34607;48.520;-1.330;2023-06-10T12:47:06;99896.50;;;21.30;100.00
48796;BME280;34607;48.520;-1.330;2023-06-10T12:49:34;99870.66;;;21.17;100.00
48796;BME280;34607;48.520;-1.330;2023-06-10T12:52:02;99891.81;;;21.13;100.00
48796;BME280;34607;48.520;-1.330;2023-06-10T12:54:29;99884.81;;;20.87;100.00
48796;BME280;34607;48.520;-1.330;2023-06-10T12:56:56;99894.47;;;20.87;100.00
48796;BME280;34607;48.520;-1.330;2023-06-10T12:59:23;99882.00;;;20.92;100.00
48796;BME280;34607;48.520;-1.330;2023-06-10T13:01:52;99870.63;;;20.91;100.00
48796;BME280;34607;48.520;-1.330;2023-06-10T13:04:20;99887.06;;;20.98;100.00
48796;BME280;34607;48.520;-1.330;2023-06-10T13:06:47;99881.94;;;21.20;100.00
48796;BME280;34607;48.520;-1.330;2023-06-10T13:09:15;99875.13;;;21.38;100.00
48796;BME280;34607;48.520;-1.330;2023-06-10T13:11:42;99874.97;;;21.43;100.00
48796;BME280;34607;48.520;-1.330;2023-06-10T13:14:10;99867.25;;;21.38;100.00
48796;BME280;34607;48.520;-1.330;2023-06-10T13:16:37;99882.84;;;21.44;100.00
48796;BME280;34607;48.520;-1.330;2023-06-10T13:19:06;99861.16;;;21.36;100.00
48796;BME280;34607;48.520;-1.330;2023-06-10T13:21:33;99858.75;;;21.30;100.00
48796;BME280;34607;48.520;-1.330;2023-06-10T13:24:01;99875.66;;;21.49;100.00
48796;BME280;34607;48.520;-1.330;2023-06-10T13:26:28;99878.41;;;21.46;100.00
48796;BME280;34607;48.520;-1.330;2023-06-10T13:28:56;99868.66;;;21.48;100.00
48796;BME280;34607;48.520;-1.330;2023-06-10T13:31:23;99879.19;;;21.48;100.00
48796;BME280;34607;48.520;-1.330;2023-06-10T13:33:50;99873.75;;;21.28;100.00
48796;BME280;34607;48.520;-1.330;2023-06-10T13:36:18;99870.44;;;21.48;100.00
48796;BME280;34607;48.520;-1.330;2023-06-10T13:38:45;99859.06;;;21.46;100.00
48796;BME280;34607;48.520;-1.330;2023-06-10T13:41:13;99863.28;;;21.51;100.00
48796;BME280;34607;48.520;-1.330;2023-06-10T13:43:40;99879.94;;;21.52;100.00
48796;BME280;34607;48.520;-1.330;2023-06-10T13:46:07;99882.47;;;21.55;100.00
48796;BME280;34607;48.520;-1.330;2023-06-10T13:48:34;99838.56;;;21.30;100.00
48796;BME280;34607;48.520;-1.330;2023-06-10T13:51:02;99875.66;;;21.49;100.00
48796;BME280;34607;48.520;-1.330;2023-06-10T13:53:30;99878.03;;;21.56;100.00
48796;BME280;34607;48.520;-1.330;2023-06-10T13:55:57;99884.13;;;21.81;100.00
48796;BME280;34607;48.520;-1.330;2023-06-10T13:58:25;99875.91;;;22.13;100.00
48796;BME280;34607;48.520;-1.330;2023-06-10T14:00:52;99868.72;;;22.40;99.21
48796;BME280;34607;48.520;-1.330;2023-06-10T14:03:20;99875.59;;;22.44;98.86
48796;BME280;34607;48.520;-1.330;2023-06-10T14:05:47;99880.41;;;22.33;98.97
48796;BME280;34607;48.520;-1.330;2023-06-10T14:08:14;99890.53;;;22.21;98.71
48796;BME280;34607;48.520;-1.330;2023-06-10T14:10:43;99893.28;;;22.18;98.35
48796;BME280;34607;48.520;-1.330;2023-06-10T14:13:10;99873.94;;;21.96;98.76
48796;BME280;34607;48.520;-1.330;2023-06-10T14:15:38;99891.22;;;21.79;100.00
48796;BME280;34607;48.520;-1.330;2023-06-10T14:18:05;99892.03;;;21.81;100.00
48796;BME280;34607;48.520;-1.330;2023-06-10T14:20:32;99886.59;;;21.86;99.79
48796;BME280;34607;48.520;-1.330;2023-06-10T14:22:59;99890.59;;;21.96;100.00
48796;BME280;34607;48.520;-1.330;2023-06-10T14:25:26;99873.53;;;21.83;100.00
48796;BME280;34607;48.520;-1.330;2023-06-10T14:27:54;99870.72;;;21.87;100.00
48796;BME280;34607;48.520;-1.330;2023-06-10T14:30:22;99876.09;;;21.84;100.00
48796;BME280;34607;48.520;-1.330;2023-06-10T14:32:49;99887.53;;;21.85;100.00
48796;BME280;34607;48.520;-1.330;2023-06-10T14:35:16;99892.28;;;21.75;100.00
48796;BME280;34607;48.520;-1.330;2023-06-10T14:37:43;99897.56;;;21.75;100.00
48796;BME280;34607;48.520;-1.330;2023-06-10T14:40:10;99898.31;;;21.54;100.00
48796;BME280;34607;48.520;-1.330;2023-06-10T14:42:37;99895.94;;;21.47;100.00
48796;BME280;34607;48.520;-1.330;2023-06-10T14:45:07;99904.22;;;21.35;100.00
48796;BME280;34607;48.520;-1.330;2023-06-10T14:47:35;99906.00;;;21.35;100.00
48796;BME280;34607;48.520;-1.330;2023-06-10T14:50:03;99910.47;;;21.32;100.00
48796;BME280;34607;48.520;-1.330;2023-06-10T14:52:30;99912.06;;;21.37;100.00
48796;BME280;34607;48.520;-1.330;2023-06-10T14:54:57;99901.00;;;21.27;100.00
48796;BME280;34607;48.520;-1.330;2023-06-10T14:57:24;99916.25;;;21.17;100.00
48796;BME280;34607;48.520;-1.330;2023-06-10T14:59:51;99924.31;;;21.12;100.00
48796;BME280;34607;48.520;-1.330;2023-06-10T15:02:19;99924.72;;;21.27;100.00
48796;BME280;34607;48.520;-1.330;2023-06-10T15:04:47;99906.59;;;21.18;100.00
48796;BME280;34607;48.520;-1.330;2023-06-10T15:07:14;99923.84;;;21.26;100.00
48796;BME280;34607;48.520;-1.330;2023-06-10T15:09:41;99920.69;;;21.17;100.00
48796;BME280;34607;48.520;-1.330;2023-06-10T15:12:09;99924.59;;;21.30;100.00
48796;BME280;34607;48.520;-1.330;2023-06-10T15:14:36;99876.78;;;20.90;100.00
48796;BME280;34607;48.520;-1.330;2023-06-10T15:17:03;99913.59;;;21.19;100.00
48796;BME280;34607;48.520;-1.330;2023-06-10T15:19:32;99911.91;;;21.16;100.00
48796;BME280;34607;48.520;-1.330;2023-06-10T15:21:59;99875.25;;;20.85;100.00
48796;BME280;34607;48.520;-1.330;2023-06-10T15:24:26;99922.38;;;21.18;100.00
48796;BME280;34607;48.520;-1.330;2023-06-10T15:26:53;99905.25;;;21.31;100.00
48796;BME280;34607;48.520;-1.330;2023-06-10T15:29:20;99907.78;;;21.34;100.00
48796;BME280;34607;48.520;-1.330;2023-06-10T15:31:47;99904.44;;;21.29;100.00
48796;BME280;34607;48.520;-1.330;2023-06-10T15:34:14;99909.06;;;21.49;100.00
48796;BME280;34607;48.520;-1.330;2023-06-10T15:36:42;99923.53;;;21.36;100.00
48796;BME280;34607;48.520;-1.330;2023-06-10T15:39:09;99921.50;;;21.44;100.00
48796;BME280;34607;48.520;-1.330;2023-06-10T15:41:36;99932.56;;;21.54;100.00
48796;BME280;34607;48.520;-1.330;2023-06-10T15:44:03;99931.03;;;21.21;100.00
48796;BME280;34607;48.520;-1.330;2023-06-10T15:46:30;99932.22;;;21.12;100.00
48796;BME280;34607;48.520;-1.330;2023-06-10T15:48:59;99930.22;;;21.19;100.00
48796;BME280;34607;48.520;-1.330;2023-06-10T15:51:26;99915.06;;;21.01;100.00
48796;BME280;34607;48.520;-1.330;2023-06-10T15:53:55;99931.50;;;21.07;100.00
48796;BME280;34607;48.520;-1.330;2023-06-10T15:56:22;99922.88;;;20.77;100.00
48796;BME280;34607;48.520;-1.330;2023-06-10T15:58:50;99935.28;;;20.73;100.00
48796;BME280;34607;48.520;-1.330;2023-06-10T16:01:17;99934.50;;;20.70;100.00
48796;BME280;34607;48.520;-1.330;2023-06-10T16:03:44;99924.03;;;20.68;100.00
48796;BME280;34607;48.520;-1.330;2023-06-10T16:06:11;99924.25;;;20.89;100.00
48796;BME280;34607;48.520;-1.330;2023-06-10T16:08:39;99928.09;;;20.79;100.00
48796;BME280;34607;48.520;-1.330;2023-06-10T16:11:07;99926.47;;;20.74;100.00
48796;BME280;34607;48.520;-1.330;2023-06-10T16:13:35;99909.31;;;20.61;100.00
48796;BME280;34607;48.520;-1.330;2023-06-10T16:16:02;99923.06;;;20.71;100.00
48796;BME280;34607;48.520;-1.330;2023-06-10T16:18:31;99912.69;;;20.66;100.00
48796;BME280;34607;48.520;-1.330;2023-06-10T16:20:58;99884.25;;;20.49;100.00
48796;BME280;34607;48.520;-1.330;2023-06-10T16:23:26;99887.50;;;20.57;100.00
48796;BME280;34607;48.520;-1.330;2023-06-10T16:25:55;99912.59;;;20.69;100.00
48796;BME280;34607;48.520;-1.330;2023-06-10T16:28:24;99886.28;;;20.69;100.00
48796;BME280;34607;48.520;-1.330;2023-06-10T16:30:51;99904.09;;;20.88;100.00
48796;BME280;34607;48.520;-1.330;2023-06-10T16:33:18;99898.69;;;20.92;100.00
48796;BME280;34607;48.520;-1.330;2023-06-10T16:35:45;99894.22;;;20.94;100.00
48796;BME280;34607;48.520;-1.330;2023-06-10T16:38:12;99889.81;;;20.95;100.00
48796;BME280;34607;48.520;-1.330;2023-06-10T16:40:39;99894.06;;;20.99;100.00
48796;BME280;34607;48.520;-1.330;2023-06-10T16:43:06;99901.88;;;21.01;100.00
48796;BME280;34607;48.520;-1.330;2023-06-10T16:45:35;99897.72;;;20.95;100.00
48796;BME280;34607;48.520;-1.330;2023-06-10T16:48:03;99906.97;;;20.80;100.00
48796;BME280;34607;48.520;-1.330;2023-06-10T16:50:30;99901.78;;;20.79;100.00
48796;BME280;34607;48.520;-1.330;2023-06-10T16:52:57;99900.91;;;20.78;100.00
48796;BME280;34607;48.520;-1.330;2023-06-10T16:55:24;99867.66;;;20.75;100.00
48796;BME280;34607;48.520;-1.330;2023-06-10T16:57:52;99892.34;;;20.98;100.00
48796;BME280;34607;48.520;-1.330;2023-06-10T17:00:19;99895.44;;;20.84;100.00
48796;BME280;34607;48.520;-1.330;2023-06-10T17:02:47;99884.22;;;20.79;100.00
48796;BME280;34607;48.520;-1.330;2023-06-10T17:05:15;99895.69;;;20.76;100.00
48796;BME280;34607;48.520;-1.330;2023-06-10T17:07:42;99875.94;;;20.90;100.00
48796;BME280;34607;48.520;-1.330;2023-06-10T17:10:09;99889.44;;;21.31;100.00
48796;BME280;34607;48.520;-1.330;2023-06-10T17:12:36;99893.84;;;21.56;100.00
48796;BME280;34607;48.520;-1.330;2023-06-10T17:15:04;99901.28;;;21.69;100.00
48796;BME280;34607;48.520;-1.330;2023-06-10T17:17:41;99897.94;;;21.88;100.00
48796;BME280;34607;48.520;-1.330;2023-06-10T17:20:11;99878.41;;;21.94;100.00
48796;BME280;34607;48.520;-1.330;2023-06-10T17:22:38;99899.75;;;22.10;100.00
48796;BME280;34607;48.520;-1.330;2023-06-10T17:25:05;99901.81;;;22.25;99.83
48796;BME280;34607;48.520;-1.330;2023-06-10T17:27:32;99890.19;;;22.07;99.84
48796;BME280;34607;48.520;-1.330;2023-06-10T17:30:04;99898.97;;;22.07;100.00
48796;BME280;34607;48.520;-1.330;2023-06-10T17:32:31;99895.94;;;21.95;100.00
48796;BME280;34607;48.520;-1.330;2023-06-10T17:34:59;99899.03;;;22.06;100.00
48796;BME280;34607;48.520;-1.330;2023-06-10T17:37:27;99905.94;;;22.08;100.00
48796;BME280;34607;48.520;-1.330;2023-06-10T17:39:54;99897.88;;;22.13;99.58
48796;BME280;34607;48.520;-1.330;2023-06-10T17:42:21;99894.94;;;22.21;99.24
48796;BME280;34607;48.520;-1.330;2023-06-10T17:44:48;99892.97;;;22.04;99.21
48796;BME280;34607;48.520;-1.330;2023-06-10T17:47:15;99894.22;;;21.94;99.19
48796;BME280;34607;48.520;-1.330;2023-06-10T17:49:42;99900.13;;;22.00;99.66
48796;BME280;34607;48.520;-1.330;2023-06-10T17:52:12;99891.59;;;21.94;98.90
48796;BME280;34607;48.520;-1.330;2023-06-10T17:54:43;99896.06;;;21.68;98.69
48796;BME280;34607;48.520;-1.330;2023-06-10T17:57:10;99897.13;;;21.62;99.26
48796;BME280;34607;48.520;-1.330;2023-06-10T17:59:37;99902.94;;;21.47;98.99
48796;BME280;34607;48.520;-1.330;2023-06-10T18:02:10;99907.53;;;21.40;99.40
48796;BME280;34607;48.520;-1.330;2023-06-10T18:04:37;99900.25;;;21.23;99.42
48796;BME280;34607;48.520;-1.330;2023-06-10T18:07:05;99912.03;;;21.13;100.00
48796;BME280;34607;48.520;-1.330;2023-06-10T18:09:32;99900.09;;;21.03;100.00
48796;BME280;34607;48.520;-1.330;2023-06-10T18:12:01;99922.41;;;20.91;100.00
48796;BME280;34607;48.520;-1.330;2023-06-10T18:14:28;99921.72;;;20.86;100.00
48796;BME280;34607;48.520;-1.330;2023-06-10T18:16:57;99913.34;;;21.00;100.00
48796;BME280;34607;48.520;-1.330;2023-06-10T18:19:29;99929.81;;;21.06;100.00
48796;BME280;34607;48.520;-1.330;2023-06-10T18:21:57;99927.75;;;21.14;100.00
48796;BME280;34607;48.520;-1.330;2023-06-10T18:24:25;99919.22;;;21.08;100.00
48796;BME280;34607;48.520;-1.330;2023-06-10T18:26:53;99901.78;;;21.04;100.00
48796;BME280;34607;48.520;-1.330;2023-06-10T18:29:22;99929.28;;;21.22;100.00
48796;BME280;34607;48.520;-1.330;2023-06-10T18:31:49;99924.81;;;21.24;99.79
48796;BME280;34607;48.520;-1.330;2023-06-10T18:34:17;99924.00;;;21.22;99.60
48796;BME280;34607;48.520;-1.330;2023-06-10T18:36:49;99923.13;;;21.21;100.00
48796;BME280;34607;48.520;-1.330;2023-06-10T18:39:17;99924.16;;;21.17;100.00
48796;BME280;34607;48.520;-1.330;2023-06-10T18:41:45;99932.81;;;21.21;100.00
48796;BME280;34607;48.520;-1.330;2023-06-10T18:44:13;99929.28;;;21.22;100.00
48796;BME280;34607;48.520;-1.330;2023-06-10T18:46:45;99932.63;;;21.27;100.00
48796;BME280;34607;48.520;-1.330;2023-06-10T18:49:12;99934.22;;;21.31;100.00
48796;BME280;34607;48.520;-1.330;2023-06-10T18:51:39;99926.59;;;21.23;100.00
48796;BME280;34607;48.520;-1.330;2023-06-10T18:54:09;99938.09;;;21.21;100.00
48796;BME280;34607;48.520;-1.330;2023-06-10T18:56:38;99944.34;;;21.18;100.00
48796;BME280;34607;48.520;-1.330;2023-06-10T18:59:07;99954.72;;;21.21;100.00
48796;BME280;34607;48.520;-1.330;2023-06-10T19:01:34;99945.97;;;21.21;100.00
48796;BME280;34607;48.520;-1.330;2023-06-10T19:04:05;99953.13;;;21.17;100.00
48796;BME280;34607;48.520;-1.330;2023-06-10T19:06:35;99959.34;;;21.14;100.00
48796;BME280;34607;48.520;-1.330;2023-06-10T19:09:05;99968.22;;;21.12;100.00
48796;BME280;34607;48.520;-1.330;2023-06-10T19:11:37;99956.97;;;21.07;100.00
48796;BME280;34607;48.520;-1.330;2023-06-10T19:14:08;99965.78;;;21.06;100.00
48796;BME280;34607;48.520;-1.330;2023-06-10T19:16:35;99959.75;;;21.02;100.00
48796;BME280;34607;48.520;-1.330;2023-06-10T19:19:02;99964.28;;;20.99;100.00
48796;BME280;34607;48.520;-1.330;2023-06-10T19:21:30;99958.47;;;20.89;100.00
48796;BME280;34607;48.520;-1.330;2023-06-10T19:23:57;99946.38;;;20.82;100.00
48796;BME280;34607;48.520;-1.330;2023-06-10T19:26:26;99969.81;;;20.91;100.00
48796;BME280;34607;48.520;-1.330;2023-06-10T19:28:53;99974.34;;;20.86;100.00
48796;BME280;34607;48.520;-1.330;2023-06-10T19:31:20;99968.41;;;20.79;100.00
48796;BME280;34607;48.520;-1.330;2023-06-10T19:33:48;99965.13;;;20.72;100.00
48796;BME280;34607;48.520;-1.330;2023-06-10T19:36:16;99969.81;;;20.63;100.00
48796;BME280;34607;48.520;-1.330;2023-06-10T19:38:46;99978.81;;;20.54;100.00
48796;BME280;34607;48.520;-1.330;2023-06-10T19:41:13;99977.00;;;20.56;100.00
48796;BME280;34607;48.520;-1.330;2023-06-10T19:43:41;99962.34;;;20.47;100.00
48796;BME280;34607;48.520;-1.330;2023-06-10T19:46:13;99976.03;;;20.58;100.00
48796;BME280;34607;48.520;-1.330;2023-06-10T19:48:47;99991.03;;;20.56;100.00